Time;durP1;ratioP1;P1;durP2;ratioP2;P2;SDS_P1;SDS_P2;PMS_P1;PMS_P2;Temp;Humidity;BMP_temperature;BMP_pressure;BME280_temperature;BME280_humidity;BME280_pressure;Samples;Min_cycle;Max_cycle;Signal;HPM_P1;HPM_P2
2020/12/12 00:02:19;;;;;;;30.05;16.10;;;8.20;60.10;;;;;;4997926;28;20312;-66
2020/12/12 00:04:45;;;;;;;34.65;16.70;;;8.20;60.20;;;;;;4998190;28;20037;-66
2020/12/12 00:07:10;;;;;;;29.67;16.20;;;8.20;60.10;;;;;;4991661;28;20045;-66
2020/12/12 00:09:37;;;;;;;35.95;17.02;;;8.10;60.00;;;;;;4997778;28;20661;-66
2020/12/12 00:12:04;;;;;;;33.25;17.35;;;8.10;60.00;;;;;;5002384;28;20041;-66
2020/12/12 00:14:30;;;;;;;34.83;17.88;;;8.00;60.00;;;;;;4996061;28;20041;-66
2020/12/12 00:16:56;;;;;;;32.40;16.05;;;7.90;60.00;;;;;;4999853;28;20056;-66
2020/12/12 00:19:22;;;;;;;31.42;17.05;;;7.90;60.00;;;;;;5002967;28;20045;-66
2020/12/12 00:21:54;;;;;;;31.70;16.63;;;7.90;60.20;;;;;;5001281;28;20430;-66
2020/12/12 00:24:21;;;;;;;35.42;17.65;;;7.80;60.20;;;;;;4996986;28;20193;-66
2020/12/12 00:26:46;;;;;;;32.60;16.83;;;7.80;60.30;;;;;;4989199;28;20496;-66
2020/12/12 00:29:13;;;;;;;34.97;18.30;;;7.80;60.30;;;;;;4984310;28;20711;-66
2020/12/12 00:31:40;;;;;;;32.28;16.58;;;7.80;60.40;;;;;;4990576;28;20046;-66
2020/12/12 00:34:06;;;;;;;35.40;16.92;;;7.80;60.40;;;;;;4985239;28;20434;-66
2020/12/12 00:36:36;;;;;;;29.10;15.63;;;7.80;60.50;;;;;;4990761;28;20042;-66
2020/12/12 00:39:02;;;;;;;39.40;18.25;;;7.80;60.50;;;;;;4993145;28;20555;-66
2020/12/12 00:41:32;;;;;;;36.50;18.58;;;7.80;61.20;;;;;;4995305;28;20052;-66
2020/12/12 00:43:58;;;;;;;38.03;18.52;;;7.80;60.50;;;;;;4999729;28;20048;-66
2020/12/12 00:46:28;;;;;;;35.22;17.98;;;7.80;60.50;;;;;;5003860;28;20065;-66
2020/12/12 00:48:53;;;;;;;34.40;17.10;;;7.80;60.50;;;;;;5001661;28;20045;-66
2020/12/12 00:51:19;;;;;;;37.13;17.25;;;7.80;60.40;;;;;;5007192;28;20042;-66
2020/12/12 00:53:44;;;;;;;37.45;17.55;;;7.80;60.50;;;;;;4997750;28;20081;-66
2020/12/12 00:56:10;;;;;;;37.10;18.92;;;7.80;60.40;;;;;;4995104;28;20095;-66
2020/12/12 00:58:35;;;;;;;34.65;17.90;;;7.80;60.40;;;;;;4996907;28;20586;-66
2020/12/12 01:01:01;;;;;;;35.80;17.50;;;7.80;60.50;;;;;;5000452;28;20056;-66
2020/12/12 01:03:27;;;;;;;37.65;18.08;;;7.80;60.50;;;;;;4999074;28;20116;-66
2020/12/12 01:05:52;;;;;;;39.28;18.25;;;7.80;60.60;;;;;;4996382;28;20513;-66
2020/12/12 01:08:18;;;;;;;37.00;17.95;;;7.70;60.50;;;;;;4996819;28;20047;-66
2020/12/12 01:10:43;;;;;;;36.80;18.73;;;7.70;60.60;;;;;;4997174;28;20796;-66
2020/12/12 01:13:09;;;;;;;36.90;18.40;;;7.70;60.60;;;;;;4999598;28;20099;-66
2020/12/12 01:15:35;;;;;;;34.17;17.10;;;7.70;60.60;;;;;;4996498;28;20041;-66
2020/12/12 01:18:00;;;;;;;37.75;17.92;;;7.70;60.70;;;;;;4996712;28;20045;-66
2020/12/12 01:20:26;;;;;;;35.15;18.30;;;7.70;60.70;;;;;;4997367;28;20133;-66
2020/12/12 01:22:51;;;;;;;39.95;18.85;;;7.70;60.70;;;;;;4998317;28;20143;-66
2020/12/12 01:25:17;;;;;;;40.05;18.23;;;7.70;60.70;;;;;;4997912;28;20555;-66
2020/12/12 01:27:43;;;;;;;38.63;18.10;;;7.70;60.70;;;;;;4995701;28;20571;-66
2020/12/12 01:30:09;;;;;;;36.10;18.58;;;7.70;60.80;;;;;;5000425;28;20077;-66
2020/12/12 01:32:34;;;;;;;41.47;18.67;;;7.70;60.90;;;;;;5003628;28;20037;-66
2020/12/12 01:35:00;;;;;;;37.80;18.27;;;7.80;61.00;;;;;;4999443;28;20045;-66
2020/12/12 01:37:26;;;;;;;38.25;18.95;;;7.80;61.00;;;;;;4997474;28;23978;-66
2020/12/12 01:39:51;;;;;;;34.08;18.27;;;7.80;61.10;;;;;;4995838;28;20033;-66
2020/12/12 01:42:17;;;;;;;40.22;19.40;;;7.80;61.00;;;;;;4998197;28;20038;-66
2020/12/12 01:44:43;;;;;;;34.22;18.67;;;7.80;61.00;;;;;;4986549;28;20061;-66
2020/12/12 01:47:09;;;;;;;37.17;18.40;;;7.90;61.00;;;;;;4987561;28;20037;-66
2020/12/12 01:49:34;;;;;;;40.15;18.98;;;7.90;61.00;;;;;;5001067;28;20091;-66
2020/12/12 01:52:01;;;;;;;42.25;19.77;;;7.90;61.70;;;;;;4994811;28;22292;-66
2020/12/12 01:54:26;;;;;;;38.53;18.83;;;7.90;60.90;;;;;;4994420;28;20852;-66
2020/12/12 01:56:54;;;;;;;40.17;19.08;;;8.00;60.90;;;;;;4992880;28;20041;-66
2020/12/12 01:59:20;;;;;;;35.72;18.50;;;8.00;60.90;;;;;;4992589;28;20260;-66
2020/12/12 02:01:49;;;;;;;38.22;19.00;;;8.00;61.00;;;;;;4989966;28;20045;-66
2020/12/12 02:04:21;;;;;;;41.85;19.05;;;8.00;61.60;;;;;;4997739;28;20100;-66
2020/12/12 02:06:47;;;;;;;43.20;19.70;;;8.00;60.90;;;;;;4996705;28;20048;-66
2020/12/12 02:09:13;;;;;;;39.25;18.98;;;8.10;61.00;;;;;;4999912;28;20037;-66
2020/12/12 02:11:40;;;;;;;44.90;20.55;;;8.10;60.90;;;;;;5001875;28;20052;-66
2020/12/12 02:14:08;;;;;;;42.40;19.23;;;8.10;60.90;;;;;;4993005;28;20046;-66
2020/12/12 02:16:53;;;;;;;44.03;19.95;;;8.10;60.90;;;;;;5011307;28;20140;-66
2020/12/12 02:19:19;;;;;;;39.65;19.25;;;8.10;60.80;;;;;;4999651;28;20049;-66
2020/12/12 02:21:51;;;;;;;39.95;18.45;;;8.20;60.80;;;;;;4996593;28;20073;-66
2020/12/12 02:24:17;;;;;;;44.88;20.27;;;8.20;60.80;;;;;;4995051;28;20084;-66
2020/12/12 02:26:43;;;;;;;41.15;19.90;;;8.20;60.80;;;;;;4996538;28;20164;-66
2020/12/12 02:29:10;;;;;;;41.97;20.15;;;8.20;60.70;;;;;;4994504;28;20157;-66
2020/12/12 02:31:37;;;;;;;44.92;19.30;;;8.20;60.60;;;;;;4997620;28;20375;-66
2020/12/12 02:34:03;;;;;;;46.60;19.83;;;8.20;60.60;;;;;;4992130;28;20088;-66
2020/12/12 02:36:34;;;;;;;38.05;18.90;;;8.20;60.60;;;;;;5002413;28;20702;-66
2020/12/12 02:38:59;;;;;;;41.70;19.27;;;8.20;60.60;;;;;;4998956;28;20045;-66
2020/12/12 02:41:25;;;;;;;40.10;19.92;;;8.20;60.60;;;;;;4997461;28;20053;-66
2020/12/12 02:43:50;;;;;;;46.45;20.17;;;8.20;60.50;;;;;;4997458;28;20064;-66
2020/12/12 02:46:16;;;;;;;43.22;18.85;;;8.20;60.60;;;;;;5004027;28;20060;-67
2020/12/12 02:48:42;;;;;;;46.45;21.50;;;8.30;60.70;;;;;;4999744;28;24536;-66
2020/12/12 02:51:08;;;;;;;43.58;20.38;;;8.30;60.60;;;;;;5008260;28;20041;-66
2020/12/12 02:53:33;;;;;;;44.35;21.23;;;8.30;60.60;;;;;;4999596;28;20147;-66
2020/12/12 02:55:59;;;;;;;43.30;21.05;;;8.30;60.70;;;;;;5001696;28;20611;-67
2020/12/12 02:58:24;;;;;;;48.13;20.85;;;8.30;60.60;;;;;;5005166;28;20042;-67
2020/12/12 03:00:50;;;;;;;45.50;20.80;;;8.30;60.60;;;;;;5006511;28;20034;-66
2020/12/12 03:03:15;;;;;;;45.47;20.75;;;8.40;60.60;;;;;;5003486;28;20045;-66
2020/12/12 03:05:41;;;;;;;46.05;21.83;;;8.40;60.60;;;;;;5003813;28;20666;-66
2020/12/12 03:08:07;;;;;;;45.80;21.17;;;8.40;60.60;;;;;;5002570;28;20042;-66
2020/12/12 03:10:32;;;;;;;45.00;21.50;;;8.40;60.60;;;;;;5022952;28;20053;-67
2020/12/12 03:12:58;;;;;;;47.85;22.10;;;8.40;60.60;;;;;;4997429;28;20061;-66
2020/12/12 03:15:23;;;;;;;51.88;22.65;;;8.40;60.60;;;;;;5005198;28;20060;-66
2020/12/12 03:17:49;;;;;;;47.95;21.83;;;8.40;60.60;;;;;;5006299;28;20366;-66
2020/12/12 03:20:14;;;;;;;51.97;22.67;;;8.50;60.60;;;;;;4998789;28;20636;-66
2020/12/12 03:22:40;;;;;;;47.15;22.00;;;8.50;60.60;;;;;;4996820;28;20057;-66
2020/12/12 03:25:06;;;;;;;53.95;22.83;;;8.50;60.60;;;;;;4991989;28;20088;-66
2020/12/12 03:27:31;;;;;;;46.33;21.45;;;8.50;60.60;;;;;;4997516;28;20510;-66
2020/12/12 03:29:57;;;;;;;48.22;22.35;;;8.50;60.60;;;;;;5002579;28;20057;-66
2020/12/12 03:32:22;;;;;;;48.38;22.77;;;8.50;60.60;;;;;;4994376;28;20084;-66
2020/12/12 03:34:48;;;;;;;51.10;23.27;;;8.50;60.60;;;;;;5001860;28;21544;-66
2020/12/12 03:37:14;;;;;;;54.78;25.73;;;8.50;60.70;;;;;;4994256;28;20070;-66
2020/12/12 03:39:40;;;;;;;49.40;22.77;;;8.50;60.70;;;;;;4997003;28;22009;-66
2020/12/12 03:42:06;;;;;;;55.33;25.52;;;8.50;60.70;;;;;;4998459;28;20512;-66
2020/12/12 03:44:32;;;;;;;57.47;24.90;;;8.50;60.80;;;;;;4995968;28;20041;-66
2020/12/12 03:46:58;;;;;;;52.80;25.75;;;8.50;60.80;;;;;;5001998;28;20796;-66
2020/12/12 03:49:24;;;;;;;56.38;24.90;;;8.50;60.90;;;;;;4992503;28;20045;-66
2020/12/12 03:51:49;;;;;;;57.17;25.08;;;8.50;60.90;;;;;;5000278;28;20479;-66
2020/12/12 03:54:15;;;;;;;55.70;25.33;;;8.60;61.00;;;;;;5007995;28;20045;-66
2020/12/12 03:56:40;;;;;;;57.85;25.55;;;8.60;61.00;;;;;;5000744;28;20115;-66
2020/12/12 03:59:06;;;;;;;57.50;26.15;;;8.60;61.00;;;;;;4994588;28;20093;-66
2020/12/12 04:01:32;;;;;;;66.53;26.10;;;8.60;61.10;;;;;;5007577;28;20038;-66
2020/12/12 04:03:58;;;;;;;63.85;26.30;;;8.60;61.10;;;;;;4997558;28;21996;-66
2020/12/12 04:06:23;;;;;;;65.65;27.77;;;8.60;61.20;;;;;;4994943;28;20812;-66
2020/12/12 04:08:49;;;;;;;68.60;28.50;;;8.60;61.30;;;;;;5000969;28;20127;-66
2020/12/12 04:11:18;;;;;;;60.72;26.35;;;8.60;61.30;;;;;;5001427;28;20042;-66
2020/12/12 04:13:44;;;;;;;59.15;27.20;;;8.60;61.30;;;;;;5003473;28;20507;-66
2020/12/12 04:16:09;;;;;;;61.63;27.10;;;8.60;61.30;;;;;;5003071;28;20095;-66
2020/12/12 04:18:35;;;;;;;64.10;27.40;;;8.60;61.40;;;;;;5006930;28;20068;-66
2020/12/12 04:21:00;;;;;;;66.07;29.15;;;8.60;61.40;;;;;;4998164;28;20088;-66
2020/12/12 04:23:26;;;;;;;62.03;27.05;;;8.60;61.50;;;;;;5000675;28;20038;-66
2020/12/12 04:25:52;;;;;;;65.25;28.05;;;8.60;61.60;;;;;;5003441;28;20034;-66
2020/12/12 04:28:20;;;;;;;63.85;28.50;;;8.60;61.70;;;;;;4995403;28;20081;-66
2020/12/12 04:30:45;;;;;;;65.60;26.67;;;8.60;61.70;;;;;;5002189;28;20508;-66
2020/12/12 04:33:11;;;;;;;66.22;28.13;;;8.60;61.70;;;;;;5001782;28;20132;-66
2020/12/12 04:35:36;;;;;;;69.32;28.27;;;8.50;61.80;;;;;;5002203;28;20045;-66
2020/12/12 04:38:03;;;;;;;83.05;31.10;;;8.50;61.80;;;;;;5008118;28;20045;-66
2020/12/12 04:40:29;;;;;;;70.78;29.67;;;8.50;61.90;;;;;;5001970;28;20116;-66
2020/12/12 04:42:55;;;;;;;76.05;29.70;;;8.50;62.00;;;;;;5008686;28;20398;-66
2020/12/12 04:45:21;;;;;;;75.55;29.20;;;8.50;62.10;;;;;;5010796;28;20045;-66
2020/12/12 04:47:49;;;;;;;69.43;29.65;;;8.50;62.20;;;;;;5002646;28;20029;-66
2020/12/12 04:50:17;;;;;;;74.25;30.67;;;8.50;62.20;;;;;;5008164;28;20041;-66
2020/12/12 04:52:42;;;;;;;75.17;31.07;;;8.50;62.20;;;;;;5003971;28;20051;-66
2020/12/12 04:55:09;;;;;;;74.65;31.33;;;8.50;62.20;;;;;;5004682;28;20042;-66
2020/12/12 04:57:39;;;;;;;85.63;30.45;;;8.50;62.40;;;;;;5003859;28;20052;-66
2020/12/12 05:00:11;;;;;;;74.07;30.15;;;8.50;62.40;;;;;;4999701;28;20494;-66
2020/12/12 05:02:37;;;;;;;76.20;29.85;;;8.50;62.40;;;;;;4994240;28;20479;-66
2020/12/12 05:05:04;;;;;;;77.88;30.20;;;8.50;62.50;;;;;;4999812;28;20037;-66
2020/12/12 05:07:30;;;;;;;72.97;29.75;;;8.60;62.50;;;;;;4999329;28;20171;-66
2020/12/12 05:09:56;;;;;;;73.32;31.13;;;8.60;62.50;;;;;;5001169;28;20039;-66
2020/12/12 05:12:22;;;;;;;80.72;29.92;;;8.60;62.50;;;;;;4993406;28;20068;-66
2020/12/12 05:14:51;;;;;;;77.97;30.65;;;8.50;62.50;;;;;;5000709;28;20057;-66
2020/12/12 05:17:19;;;;;;;76.38;30.88;;;8.60;62.60;;;;;;4991705;28;20068;-66
2020/12/12 05:19:50;;;;;;;82.53;30.60;;;8.60;62.60;;;;;;4999817;28;22869;-66
2020/12/12 05:22:17;;;;;;;72.45;30.08;;;8.60;62.70;;;;;;4993291;28;20034;-66
2020/12/12 05:24:43;;;;;;;77.88;30.77;;;8.60;62.70;;;;;;5005169;28;20042;-66
2020/12/12 05:27:09;;;;;;;78.50;32.13;;;8.60;62.70;;;;;;4996733;28;20034;-66
2020/12/12 05:29:35;;;;;;;82.63;32.83;;;8.60;62.70;;;;;;5004496;28;20049;-66
2020/12/12 05:32:03;;;;;;;81.60;32.67;;;8.60;62.80;;;;;;4998420;28;20065;-66
2020/12/12 05:34:29;;;;;;;76.38;30.80;;;8.60;62.80;;;;;;4995429;28;24269;-66
2020/12/12 05:36:56;;;;;;;89.93;33.75;;;8.60;62.80;;;;;;5001222;28;20096;-66
2020/12/12 05:39:24;;;;;;;97.90;32.42;;;8.60;62.80;;;;;;5000214;28;21058;-66
2020/12/12 05:41:50;;;;;;;80.05;31.23;;;8.70;63.60;;;;;;4995706;28;20422;-66
2020/12/12 05:44:17;;;;;;;79.63;33.20;;;8.70;62.80;;;;;;4996777;28;20037;-66
2020/12/12 05:46:43;;;;;;;82.53;32.03;;;8.60;62.80;;;;;;4994326;28;20863;-66
2020/12/12 05:49:09;;;;;;;82.60;31.13;;;8.70;62.90;;;;;;4996204;28;20041;-66
2020/12/12 05:51:37;;;;;;;87.70;33.13;;;8.70;62.90;;;;;;4994474;28;20107;-66
2020/12/12 05:54:03;;;;;;;82.25;31.85;;;8.70;62.90;;;;;;5010987;28;20076;-67
2020/12/12 05:56:30;;;;;;;79.35;31.58;;;8.70;62.90;;;;;;4993490;28;20091;-66
2020/12/12 05:58:56;;;;;;;82.85;32.60;;;8.70;62.90;;;;;;5014148;22;20045;-66
2020/12/12 06:01:23;;;;;;;82.60;33.35;;;8.70;62.90;;;;;;5010237;28;20515;-65
2020/12/12 06:03:50;;;;;;;81.57;33.15;;;8.70;62.90;;;;;;5003357;28;20044;-64
2020/12/12 06:06:21;;;;;;;84.10;33.60;;;8.70;62.90;;;;;;4998053;28;20448;-64
2020/12/12 06:09:00;;;;;;;84.90;32.80;;;8.70;63.00;;;;;;5012733;28;20690;-64
2020/12/12 06:11:29;;;;;;;84.72;32.70;;;8.70;63.00;;;;;;5012216;28;20046;-64
2020/12/12 06:13:59;;;;;;;78.70;32.25;;;8.70;63.00;;;;;;5012496;28;20087;-64
2020/12/12 06:16:29;;;;;;;80.10;32.58;;;8.70;62.90;;;;;;5014833;28;20752;-64
2020/12/12 06:19:11;;;;;;;89.03;33.72;;;8.70;63.00;;;;;;5014718;28;20037;-64
2020/12/12 06:21:43;;;;;;;85.75;33.63;;;8.70;63.00;;;;;;5018295;28;20037;-65
2020/12/12 06:24:13;;;;;;;86.82;33.05;;;8.70;63.00;;;;;;5017299;28;20049;-64
2020/12/12 06:26:56;;;;;;;84.43;33.78;;;8.70;63.00;;;;;;5022555;28;20190;-65
2020/12/12 06:29:25;;;;;;;87.10;33.70;;;8.70;63.00;;;;;;5020064;28;24474;-65
2020/12/12 06:31:52;;;;;;;86.60;34.05;;;8.70;63.00;;;;;;5010944;28;20509;-65
2020/12/12 06:34:41;;;;;;;80.68;34.08;;;8.70;63.00;;;;;;5008082;28;20052;-65
2020/12/12 06:37:07;;;;;;;88.80;34.80;;;8.70;63.00;;;;;;5018535;28;20108;-65
2020/12/12 06:39:44;;;;;;;74.93;33.83;;;8.70;63.00;;;;;;5023057;28;20048;-65
2020/12/12 06:42:30;;;;;;;86.57;34.75;;;8.80;63.00;;;;;;5021041;28;20168;-65
2020/12/12 06:44:56;;;;;;;96.13;35.83;;;8.70;63.00;;;;;;5013911;28;20038;-65
2020/12/12 06:47:37;;;;;;;93.72;33.90;;;8.80;63.00;;;;;;5022276;28;20071;-65
2020/12/12 06:50:20;;;;;;;81.78;32.35;;;8.80;63.10;;;;;;5016882;28;20048;-65
2020/12/12 06:52:47;;;;;;;88.07;33.97;;;8.70;63.00;;;;;;5011557;28;20047;-65
2020/12/12 06:55:14;;;;;;;88.65;35.03;;;8.70;63.00;;;;;;5015336;28;20397;-65
2020/12/12 06:57:44;;;;;;;90.43;36.10;;;8.70;63.10;;;;;;5011942;28;20064;-65
2020/12/12 07:00:31;;;;;;;81.32;32.30;;;8.70;63.10;;;;;;5009251;28;20069;-65
2020/12/12 07:03:02;;;;;;;87.68;36.17;;;8.70;63.10;;;;;;5010985;28;20032;-64
2020/12/12 07:05:30;;;;;;;83.45;33.70;;;8.70;63.20;;;;;;5005215;28;20493;-65
2020/12/12 07:08:03;;;;;;;80.57;33.15;;;8.70;63.20;;;;;;5012552;28;20050;-65
2020/12/12 07:10:31;;;;;;;81.88;34.65;;;8.70;63.10;;;;;;5011397;28;20091;-65
2020/12/12 07:12:58;;;;;;;85.90;33.97;;;8.70;63.20;;;;;;5013286;28;20033;-65
2020/12/12 07:15:28;;;;;;;80.70;33.72;;;8.70;63.20;;;;;;4996437;28;20604;-65
2020/12/12 07:17:53;;;;;;;89.30;34.17;;;8.70;63.20;;;;;;5021487;28;20153;-66
2020/12/12 07:20:19;;;;;;;89.03;36.30;;;8.70;63.20;;;;;;5020509;28;20057;-65
2020/12/12 07:22:48;;;;;;;86.47;35.10;;;8.60;63.10;;;;;;5018576;28;20048;-65
2020/12/12 07:25:13;;;;;;;82.75;33.50;;;8.60;63.20;;;;;;5016513;28;20048;-65
2020/12/12 07:27:39;;;;;;;86.72;36.45;;;8.60;63.20;;;;;;5022040;28;20040;-65
2020/12/12 07:30:04;;;;;;;84.88;35.42;;;8.60;63.20;;;;;;5025301;28;20041;-65
2020/12/12 07:32:30;;;;;;;87.07;35.08;;;8.60;63.20;;;;;;5030577;28;20535;-65
2020/12/12 07:35:00;;;;;;;84.53;36.67;;;8.60;63.20;;;;;;5029943;28;20055;-65
2020/12/12 07:37:26;;;;;;;78.32;33.38;;;8.70;63.30;;;;;;5031770;28;20037;-65
2020/12/12 07:39:53;;;;;;;87.72;35.03;;;8.70;63.20;;;;;;5029109;28;20048;-65
2020/12/12 07:42:21;;;;;;;74.93;32.08;;;8.60;63.20;;;;;;5016630;28;20056;-65
2020/12/12 07:44:57;;;;;;;80.82;34.03;;;8.70;63.20;;;;;;5027787;28;20029;-65
2020/12/12 07:47:23;;;;;;;85.88;34.92;;;8.70;63.30;;;;;;5032656;28;20564;-65
2020/12/12 07:49:48;;;;;;;76.82;32.97;;;8.70;63.20;;;;;;5033395;28;20049;-65
2020/12/12 07:52:14;;;;;;;77.50;31.70;;;8.70;63.10;;;;;;5029654;28;20040;-65
2020/12/12 07:54:54;;;;;;;86.80;34.35;;;8.70;63.20;;;;;;5032587;28;20566;-65
2020/12/12 07:57:20;;;;;;;87.60;34.63;;;8.70;63.20;;;;;;5031873;28;20502;-65
2020/12/12 07:59:45;;;;;;;80.35;34.13;;;8.70;63.20;;;;;;5031278;28;20144;-65
2020/12/12 08:02:13;;;;;;;89.57;35.42;;;8.70;63.20;;;;;;5014918;28;20033;-65
2020/12/12 08:04:39;;;;;;;80.15;33.45;;;8.70;63.20;;;;;;5030008;28;20119;-65
2020/12/12 08:07:12;;;;;;;84.47;35.95;;;8.70;63.20;;;;;;5031196;28;20033;-65
2020/12/12 08:09:45;;;;;;;82.00;33.75;;;8.70;63.60;;;;;;5038654;28;20053;-65
2020/12/12 08:12:17;;;;;;;89.93;34.17;;;8.70;63.10;;;;;;5037344;28;20037;-65
2020/12/12 08:14:46;;;;;;;82.10;34.58;;;8.70;63.10;;;;;;5036089;28;20469;-65
2020/12/12 08:17:13;;;;;;;77.72;32.95;;;8.70;63.10;;;;;;5030249;28;20041;-65
2020/12/12 08:19:45;;;;;;;82.05;33.72;;;8.70;63.00;;;;;;5035246;28;20044;-65
2020/12/12 08:22:21;;;;;;;77.93;33.88;;;8.70;63.00;;;;;;5037751;28;20048;-65
2020/12/12 08:24:48;;;;;;;70.63;32.60;;;8.80;63.20;;;;;;5036406;28;21038;-65
2020/12/12 08:27:24;;;;;;;72.68;31.00;;;8.80;63.80;;;;;;5019016;28;20045;-65
2020/12/12 08:29:55;;;;;;;82.97;32.67;;;8.80;63.00;;;;;;5037558;28;20039;-65
2020/12/12 08:32:37;;;;;;;79.80;34.30;;;8.80;63.00;;;;;;5022860;28;20057;-65
2020/12/12 08:35:27;;;;;;;84.70;35.42;;;8.80;63.00;;;;;;5031276;28;20447;-66
2020/12/12 08:38:01;;;;;;;76.50;32.72;;;8.80;63.10;;;;;;5032846;28;20048;-65
2020/12/12 08:40:48;;;;;;;85.82;34.10;;;8.80;63.00;;;;;;5028275;28;20048;-65
2020/12/12 08:43:14;;;;;;;86.85;35.00;;;8.80;63.00;;;;;;5026240;28;20112;-65
2020/12/12 08:45:42;;;;;;;76.00;32.05;;;8.80;62.90;;;;;;5027000;28;20036;-65
2020/12/12 08:48:15;;;;;;;79.25;33.63;;;8.80;62.90;;;;;;5027867;28;20053;-65
2020/12/12 08:50:57;;;;;;;81.38;34.42;;;8.80;63.00;;;;;;5033297;28;20029;-65
2020/12/12 08:53:33;;;;;;;76.63;33.17;;;8.80;63.00;;;;;;5030170;28;20044;-65
2020/12/12 08:56:01;;;;;;;78.65;31.33;;;8.80;62.90;;;;;;5028974;28;20041;-65
2020/12/12 08:58:37;;;;;;;82.30;32.67;;;8.80;62.90;;;;;;5015622;28;20060;-65
2020/12/12 09:01:16;;;;;;;79.80;34.17;;;8.80;62.90;;;;;;5017123;28;20042;-65
2020/12/12 09:03:57;;;;;;;74.40;31.98;;;8.80;62.90;;;;;;5021125;28;20034;-65
2020/12/12 09:06:24;;;;;;;81.97;34.22;;;8.80;63.00;;;;;;5021198;28;20048;-65
2020/12/12 09:09:04;;;;;;;77.93;34.67;;;8.80;63.00;;;;;;5022070;28;20044;-66
2020/12/12 09:11:31;;;;;;;82.50;33.92;;;8.80;63.10;;;;;;5022664;28;20131;-65
2020/12/12 09:13:58;;;;;;;78.20;32.58;;;8.80;63.00;;;;;;5018619;28;20054;-65
2020/12/12 09:16:26;;;;;;;82.10;33.85;;;8.90;63.10;;;;;;5020222;28;20133;-65
2020/12/12 09:18:52;;;;;;;71.45;30.80;;;8.90;63.00;;;;;;5020948;28;20040;-65
2020/12/12 09:21:18;;;;;;;79.78;33.17;;;9.00;63.00;;;;;;5021981;28;20188;-65
2020/12/12 09:23:44;;;;;;;74.35;31.58;;;9.00;62.90;;;;;;5018935;28;20073;-65
2020/12/12 09:26:10;;;;;;;83.35;32.28;;;9.00;62.80;;;;;;5022528;28;20136;-65
2020/12/12 09:28:36;;;;;;;73.07;32.40;;;9.10;62.90;;;;;;5005279;28;20538;-66
2020/12/12 09:31:03;;;;;;;79.28;32.85;;;9.10;62.80;;;;;;5020200;28;20044;-66
2020/12/12 09:33:29;;;;;;;73.50;31.98;;;9.10;62.80;;;;;;5022661;28;20037;-66
2020/12/12 09:35:55;;;;;;;76.88;32.78;;;9.10;62.80;;;;;;5016497;28;20888;-66
2020/12/12 09:38:21;;;;;;;80.07;32.55;;;9.10;62.80;;;;;;5019428;28;20037;-65
2020/12/12 09:40:49;;;;;;;79.07;32.25;;;9.10;62.80;;;;;;5020226;28;20037;-65
2020/12/12 09:43:17;;;;;;;72.20;33.08;;;9.10;62.80;;;;;;5018962;28;20692;-66
2020/12/12 09:45:43;;;;;;;73.57;32.92;;;9.10;62.70;;;;;;5016348;28;20044;-66
2020/12/12 09:48:09;;;;;;;81.05;33.25;;;9.20;62.70;;;;;;4988765;28;20297;-66
2020/12/12 09:50:35;;;;;;;78.90;32.08;;;9.10;62.60;;;;;;5018962;28;20150;-66
2020/12/12 09:53:02;;;;;;;73.47;32.63;;;9.20;62.70;;;;;;5010954;28;20042;-66
2020/12/12 09:55:28;;;;;;;74.72;30.92;;;9.20;62.70;;;;;;5013818;28;20029;-66
2020/12/12 09:57:55;;;;;;;81.18;34.13;;;9.20;62.60;;;;;;5013150;28;20155;-66
2020/12/12 10:00:20;;;;;;;74.20;30.70;;;9.20;62.50;;;;;;5008384;28;20060;-66
2020/12/12 10:02:46;;;;;;;80.38;32.45;;;9.20;62.40;;;;;;5016437;28;20045;-66
2020/12/12 10:05:12;;;;;;;76.97;33.95;;;9.20;62.50;;;;;;5009087;28;20041;-66
2020/12/12 10:07:37;;;;;;;77.05;31.92;;;9.20;62.50;;;;;;5009394;28;20135;-66
2020/12/12 10:10:03;;;;;;;76.07;32.85;;;9.20;62.60;;;;;;5007366;28;20045;-66
2020/12/12 10:12:29;;;;;;;79.00;33.22;;;9.20;62.60;;;;;;5010159;28;20938;-66
2020/12/12 10:14:54;;;;;;;80.05;34.42;;;9.20;62.60;;;;;;5015709;28;20078;-66
2020/12/12 10:17:20;;;;;;;75.43;33.10;;;9.20;62.60;;;;;;5017742;28;20394;-66
2020/12/12 10:19:47;;;;;;;76.22;33.53;;;9.20;62.50;;;;;;5019467;28;20099;-66
2020/12/12 10:22:13;;;;;;;80.40;33.25;;;9.20;62.60;;;;;;5016764;28;20651;-66
2020/12/12 10:24:39;;;;;;;92.15;35.38;;;9.20;62.60;;;;;;5017580;28;20068;-66
2020/12/12 10:27:04;;;;;;;78.60;33.83;;;9.20;62.60;;;;;;5016102;28;20056;-66
2020/12/12 10:29:30;;;;;;;86.93;34.33;;;9.30;62.60;;;;;;5004764;28;20482;-66
2020/12/12 10:31:58;;;;;;;91.10;35.85;;;9.30;62.70;;;;;;5016044;28;20048;-66
2020/12/12 10:34:23;;;;;;;78.15;32.75;;;9.30;62.60;;;;;;5016436;28;20135;-66
2020/12/12 10:36:49;;;;;;;88.05;34.38;;;9.30;62.60;;;;;;5015357;28;20180;-66
2020/12/12 10:39:24;;;;;;;77.18;31.13;;;9.40;62.60;;;;;;5012026;28;20049;-65
2020/12/12 10:41:50;;;;;;;83.40;33.95;;;9.40;62.80;;;;;;5015973;28;20307;-65
2020/12/12 10:44:15;;;;;;;73.30;32.72;;;9.40;62.50;;;;;;5016976;28;20429;-66
2020/12/12 10:46:41;;;;;;;75.63;32.47;;;9.40;62.40;;;;;;5018767;28;20041;-66
2020/12/12 10:49:06;;;;;;;73.95;32.03;;;9.50;62.40;;;;;;5018732;28;20674;-66
2020/12/12 10:51:32;;;;;;;78.97;33.65;;;9.50;62.30;;;;;;5016200;28;20056;-65
2020/12/12 10:53:58;;;;;;;75.07;30.50;;;9.50;62.30;;;;;;5018576;28;20067;-66
2020/12/12 10:56:24;;;;;;;70.47;31.65;;;9.50;62.20;;;;;;5018346;28;20067;-65
2020/12/12 10:58:49;;;;;;;70.80;32.00;;;9.50;62.10;;;;;;5024038;28;20033;-65
2020/12/12 11:01:15;;;;;;;73.15;31.15;;;9.50;62.10;;;;;;5016263;28;20118;-66
2020/12/12 11:03:42;;;;;;;69.68;30.13;;;9.50;62.10;;;;;;5009798;28;20044;-66
2020/12/12 11:06:10;;;;;;;73.80;31.70;;;9.50;62.00;;;;;;5012935;28;20028;-66
2020/12/12 11:08:36;;;;;;;72.53;30.58;;;9.50;62.10;;;;;;5015026;28;20684;-66
2020/12/12 11:11:02;;;;;;;67.80;29.83;;;9.50;62.10;;;;;;5007503;28;20037;-67
2020/12/12 11:13:28;;;;;;;75.47;31.10;;;9.50;62.00;;;;;;5009221;28;20052;-66
2020/12/12 11:15:53;;;;;;;76.30;30.48;;;9.50;62.00;;;;;;5015421;28;20122;-66
2020/12/12 11:18:19;;;;;;;80.05;31.15;;;9.50;62.00;;;;;;5016760;28;20041;-66
2020/12/12 11:20:46;;;;;;;73.20;30.63;;;9.50;62.00;;;;;;5018283;28;20450;-66
2020/12/12 11:23:12;;;;;;;71.60;30.45;;;9.50;62.00;;;;;;5019451;28;20083;-66
2020/12/12 11:25:38;;;;;;;67.00;30.25;;;9.50;61.90;;;;;;5018420;28;20131;-66
2020/12/12 11:28:03;;;;;;;73.80;30.90;;;9.50;61.90;;;;;;5016646;28;20040;-66
2020/12/12 11:30:30;;;;;;;70.80;29.55;;;9.50;61.80;;;;;;5017019;28;20098;-66
2020/12/12 11:32:57;;;;;;;77.57;32.83;;;9.50;61.80;;;;;;5017191;28;20037;-66
2020/12/12 11:35:33;;;;;;;71.53;31.20;;;9.50;61.80;;;;;;5019060;28;20049;-66
2020/12/12 11:48:30;;;;;;;74.95;29.83;;;9.60;61.60;;;;;;5018040;28;20043;-67
2020/12/12 11:50:56;;;;;;;67.30;30.92;;;9.60;61.50;;;;;;5015386;28;20392;-67
2020/12/12 11:53:21;;;;;;;74.25;30.98;;;9.60;61.60;;;;;;5020882;28;20079;-66
2020/12/12 11:55:49;;;;;;;71.57;31.42;;;9.60;61.50;;;;;;5015822;28;20520;-66
2020/12/12 11:58:15;;;;;;;81.18;32.65;;;9.60;61.50;;;;;;5016622;28;20086;-66
2020/12/12 12:00:43;;;;;;;75.10;31.05;;;9.60;61.50;;;;;;5027589;22;20037;-62
2020/12/12 12:03:13;;;;;;;67.75;29.88;;;9.60;61.60;;;;;;5000312;28;20133;-61
2020/12/12 12:05:46;;;;;;;73.75;30.85;;;9.60;61.50;;;;;;4997106;28;20084;-61
2020/12/12 12:08:27;;;;;;;72.15;30.13;;;9.60;61.50;;;;;;5005869;28;20041;-61
2020/12/12 12:11:35;;;;;;;68.63;31.17;;;9.50;61.50;;;;;;5005578;28;20041;-61
2020/12/12 12:13:42;;;;;;;74.82;30.50;;;9.60;61.70;;;;;;4994874;28;20041;-61
2020/12/12 12:16:08;;;;;;;71.03;30.92;;;9.60;61.70;;;;;;5004277;28;20034;-61
2020/12/12 12:18:34;;;;;;;72.85;29.80;;;9.60;61.60;;;;;;5002034;28;20043;-62
2020/12/12 12:21:01;;;;;;;72.25;31.38;;;9.60;61.60;;;;;;5001693;28;20434;-61
2020/12/12 12:23:29;;;;;;;64.82;29.63;;;9.60;61.50;;;;;;4999096;28;20123;-61
2020/12/12 12:25:55;;;;;;;64.90;29.15;;;9.60;61.50;;;;;;4997539;28;20056;-61
2020/12/12 12:28:21;;;;;;;72.22;30.50;;;9.60;62.30;;;;;;5003192;28;20033;-62
2020/12/12 12:30:47;;;;;;;65.50;29.55;;;9.60;62.30;;;;;;5002134;28;20034;-62
2020/12/12 12:33:13;;;;;;;67.35;28.90;;;9.60;61.50;;;;;;5003099;28;20048;-62
2020/12/12 12:35:39;;;;;;;69.18;29.33;;;9.60;61.60;;;;;;5005707;28;20065;-62
2020/12/12 12:38:05;;;;;;;68.32;30.48;;;9.60;61.60;;;;;;5007120;28;20033;-61
2020/12/12 12:40:30;;;;;;;69.78;30.92;;;9.70;61.60;;;;;;5003733;28;20046;-60
2020/12/12 12:42:59;;;;;;;71.65;31.55;;;9.70;61.50;;;;;;5004860;28;20049;-61
2020/12/12 12:45:25;;;;;;;69.50;29.33;;;9.70;61.60;;;;;;5001373;28;20393;-61
2020/12/12 12:47:51;;;;;;;69.28;31.98;;;9.70;61.50;;;;;;5002543;28;20045;-61
2020/12/12 12:50:17;;;;;;;69.90;31.48;;;9.70;61.60;;;;;;5002506;28;20042;-62